MOL Partner — 3EBZ5 — position and weather

sailwx.info

Track history (hours):
 
Tides and Currents Weather Stations Pressure Air Temp Water Temp Dewpoint Dewpoint Depression Visibility Wind Speed Wind Dir Waves Ship Positions

MOL Partner

Last reported at 2014-Dec-14 16:22 UTC. Time now 2014-Dec-18 14:26 UTC.
Position N 01°59' E 102°14'.

Length 293 m; draft 12.9 m.

Type: Ship (hazmat cat D). MMSI: 371303000.

Date/timePositionNaut miles runAvg speedWind from/ knotsBaromVisibWave heightAir tempDewpointWater temp
2014-Dec-14 16:22N 01°59' E 102°14'1315.3
2014-Dec-14 15:33N 01°52' E 102°24'8616.5
2014-Dec-14 10:18N 01°11' E 103°40'9 9.5
2014-Dec-14 09:23N 01°11' E 103°49'5 6.5
2014-Dec-14 08:33N 01°15' E 103°51'1 0.5
2014-Dec-14 07:16N 01°16' E 103°51'0 0.0
2014-Dec-14 06:22N 01°16' E 103°51'0 0.0
2014-Dec-14 05:31N 01°16' E 103°51'0 0.0
2014-Dec-14 04:22N 01°16' E 103°51'0 0.0
2014-Dec-14 03:31N 01°16' E 103°51'0 0.0
2014-Dec-14 02:31N 01°16' E 103°51'0 0.0
2014-Dec-14 01:28N 01°16' E 103°51'0 0.0
2014-Dec-13 23:31N 01°16' E 103°51'0 0.0
2014-Dec-13 22:16N 01°16' E 103°51'0 0.0
2014-Dec-13 21:22N 01°16' E 103°51'0 0.0
2014-Dec-13 20:31N 01°16' E 103°51'0 0.0
2014-Dec-13 19:10N 01°16' E 103°51'0 0.0
2014-Dec-13 18:28N 01°16' E 103°51'0 0.0
2014-Dec-13 17:28N 01°16' E 103°51'0 0.0
2014-Dec-13 16:28N 01°16' E 103°51'0 0.0
2014-Dec-13 15:28N 01°16' E 103°51'0 0.0
2014-Dec-13 14:10N 01°16' E 103°51'0 0.0
2014-Dec-13 13:16N 01°16' E 103°51'0 0.0
2014-Dec-13 12:28N 01°16' E 103°51'0 0.0
2014-Dec-13 11:28N 01°16' E 103°51'0 0.0
2014-Dec-13 10:22N 01°16' E 103°51'0 0.0
2014-Dec-13 09:22N 01°16' E 103°51'0 0.0
2014-Dec-13 08:16N 01°16' E 103°51'0 0.0
2014-Dec-13 07:28N 01°16' E 103°51'0 0.0
2014-Dec-13 06:28N 01°16' E 103°51'0 0.0
2014-Dec-13 05:25N 01°16' E 103°51'0 0.0
2014-Dec-13 04:25N 01°16' E 103°51'0 0.0
2014-Dec-13 03:31N 01°16' E 103°51'1 1.0
2014-Dec-13 02:34N 01°15' E 103°52'5 5.4
2014-Dec-13 01:33N 01°15' E 103°57'1010.2
2014-Dec-13 00:33N 01°16' E 104°07'  
2014-Dec-08 15:17N 22°18' E 114°06'2 0.1
2014-Dec-07 23:22N 22°20' E 114°07'9 8.5
2014-Dec-07 22:16N 22°11' E 114°12'251 8.2
2014-Dec-06 15:31N 23°49' E 118°22'6215.2
2014-Dec-06 11:28N 24°29' E 119°14'40112.2
2014-Dec-05 02:34N 30°32' E 122°26'1111.5
2014-Dec-05 01:34N 30°34' E 122°13'8 7.8
2014-Dec-05 00:33N 30°37' E 122°05'0 0.0
2014-Dec-04 23:30N 30°37' E 122°05'0 0.0
2014-Dec-04 22:33N 30°37' E 122°05'0 0.0
2014-Dec-04 20:33N 30°37' E 122°05'0 0.0
2014-Dec-04 19:15N 30°37' E 122°05'0 0.0
2014-Dec-04 17:33N 30°37' E 122°05'0 0.0
2014-Dec-04 16:33N 30°37' E 122°05'  
Track history (hours):
 
Tides and Currents Weather Stations Pressure Air Temp Water Temp Dewpoint Dewpoint Depression Visibility Wind Speed Wind Dir Waves Ship Positions

MOL Partner

Last reported at 2014-Dec-14 16:22 UTC. Time now 2014-Dec-18 14:26 UTC.
Position N 01°59' E 102°14'.

Length 293 m; draft 12.9 m.

Type: Ship (hazmat cat D). MMSI: 371303000.

Date/timePositionNaut miles runAvg speedWind from/ knotsBaromVisibWave heightAir tempDewpointWater temp
2014-Dec-14 16:22N 01°59' E 102°14'1315.3
2014-Dec-14 15:33N 01°52' E 102°24'8616.5
2014-Dec-14 10:18N 01°11' E 103°40'9 9.5
2014-Dec-14 09:23N 01°11' E 103°49'5 6.5
2014-Dec-14 08:33N 01°15' E 103°51'1 0.5
2014-Dec-14 07:16N 01°16' E 103°51'0 0.0
2014-Dec-14 06:22N 01°16' E 103°51'0 0.0
2014-Dec-14 05:31N 01°16' E 103°51'0 0.0
2014-Dec-14 04:22N 01°16' E 103°51'0 0.0
2014-Dec-14 03:31N 01°16' E 103°51'0 0.0
2014-Dec-14 02:31N 01°16' E 103°51'0 0.0
2014-Dec-14 01:28N 01°16' E 103°51'0 0.0
2014-Dec-13 23:31N 01°16' E 103°51'0 0.0
2014-Dec-13 22:16N 01°16' E 103°51'0 0.0
2014-Dec-13 21:22N 01°16' E 103°51'0 0.0
2014-Dec-13 20:31N 01°16' E 103°51'0 0.0
2014-Dec-13 19:10N 01°16' E 103°51'0 0.0
2014-Dec-13 18:28N 01°16' E 103°51'0 0.0
2014-Dec-13 17:28N 01°16' E 103°51'0 0.0
2014-Dec-13 16:28N 01°16' E 103°51'0 0.0
2014-Dec-13 15:28N 01°16' E 103°51'0 0.0
2014-Dec-13 14:10N 01°16' E 103°51'0 0.0
2014-Dec-13 13:16N 01°16' E 103°51'0 0.0
2014-Dec-13 12:28N 01°16' E 103°51'0 0.0
2014-Dec-13 11:28N 01°16' E 103°51'0 0.0
2014-Dec-13 10:22N 01°16' E 103°51'0 0.0
2014-Dec-13 09:22N 01°16' E 103°51'0 0.0
2014-Dec-13 08:16N 01°16' E 103°51'0 0.0
2014-Dec-13 07:28N 01°16' E 103°51'0 0.0
2014-Dec-13 06:28N 01°16' E 103°51'0 0.0
2014-Dec-13 05:25N 01°16' E 103°51'0 0.0
2014-Dec-13 04:25N 01°16' E 103°51'0 0.0
2014-Dec-13 03:31N 01°16' E 103°51'1 1.0
2014-Dec-13 02:34N 01°15' E 103°52'5 5.4
2014-Dec-13 01:33N 01°15' E 103°57'1010.2
2014-Dec-13 00:33N 01°16' E 104°07'  
2014-Dec-08 15:17N 22°18' E 114°06'2 0.1
2014-Dec-07 23:22N 22°20' E 114°07'9 8.5
2014-Dec-07 22:16N 22°11' E 114°12'251 8.2
2014-Dec-06 15:31N 23°49' E 118°22'6215.2
2014-Dec-06 11:28N 24°29' E 119°14'40112.2
2014-Dec-05 02:34N 30°32' E 122°26'1111.5
2014-Dec-05 01:34N 30°34' E 122°13'8 7.8
2014-Dec-05 00:33N 30°37' E 122°05'0 0.0
2014-Dec-04 23:30N 30°37' E 122°05'0 0.0
2014-Dec-04 22:33N 30°37' E 122°05'0 0.0
2014-Dec-04 20:33N 30°37' E 122°05'0 0.0
2014-Dec-04 19:15N 30°37' E 122°05'0 0.0
2014-Dec-04 17:33N 30°37' E 122°05'0 0.0
2014-Dec-04 16:33N 30°37' E 122°05'  

Dump ship's entire track history